createdAt,value
2018-02-23T00:00:31.714Z,1017.64
2018-02-23T00:01:31.665Z,1017.63
2018-02-23T00:02:31.917Z,1017.62
2018-02-23T00:03:31.569Z,1017.64
2018-02-23T00:04:31.521Z,1017.56
2018-02-23T00:05:31.672Z,1017.63
2018-02-23T00:06:31.432Z,1017.57
2018-02-23T00:07:31.375Z,1017.58
2018-02-23T00:08:31.329Z,1017.56
2018-02-23T00:09:31.580Z,1017.56
2018-02-23T00:10:31.232Z,1017.57
2018-02-23T00:11:31.382Z,1017.55
2018-02-23T00:12:31.134Z,1017.60
2018-02-23T00:13:31.085Z,1017.54
2018-02-23T00:14:31.038Z,1017.60
2018-02-23T00:15:30.993Z,1017.60
2018-02-23T00:16:31.243Z,1017.60
2018-02-23T00:17:30.944Z,1017.66
2018-02-23T00:18:30.846Z,1017.62
2018-02-23T00:19:30.800Z,1017.61
2018-02-23T00:20:30.751Z,1017.59
2018-02-23T00:21:30.707Z,1017.61
2018-02-23T00:22:30.654Z,1017.65
2018-02-23T00:23:30.904Z,1017.62
2018-02-23T00:24:30.556Z,1017.69
2018-02-23T00:25:30.512Z,1017.62
2018-02-23T00:26:30.463Z,1017.63
2018-02-23T00:27:30.413Z,1017.62
2018-02-23T00:28:30.366Z,1017.57
2018-02-23T00:29:30.619Z,1017.63
2018-02-23T00:30:30.271Z,1017.59
2018-02-23T00:31:30.221Z,1017.63
2018-02-23T00:32:30.173Z,1017.63
2018-02-23T00:33:30.178Z,1017.59
2018-02-23T00:34:30.083Z,1017.64
2018-02-23T00:35:30.332Z,1017.64
2018-02-23T00:36:29.984Z,1017.53
2018-02-23T00:37:29.938Z,1017.58
2018-02-23T00:38:29.886Z,1017.56
2018-02-23T00:39:30.043Z,1017.56
2018-02-23T00:40:29.789Z,1017.50
2018-02-23T00:41:30.042Z,1017.55
2018-02-23T00:42:29.696Z,1017.60
2018-02-23T00:43:29.645Z,1017.54
2018-02-23T00:44:29.599Z,1017.57
2018-02-23T00:45:29.801Z,1017.54
2018-02-23T00:46:29.504Z,1017.58
2018-02-23T00:47:29.758Z,1017.58
2018-02-23T00:48:29.410Z,1017.55
2018-02-23T00:49:29.360Z,1017.58
2018-02-23T00:50:29.314Z,1017.56
2018-02-23T00:51:29.264Z,1017.56
2018-02-23T00:52:29.215Z,1017.59
2018-02-23T00:53:29.466Z,1017.59
2018-02-23T00:54:29.118Z,1017.63
2018-02-23T00:55:29.075Z,1017.60
2018-02-23T00:56:29.024Z,1017.60
2018-02-23T00:57:28.977Z,1017.55
2018-02-23T00:58:28.930Z,1017.59
2018-02-23T00:59:28.878Z,1017.57
2018-02-23T01:00:29.132Z,1017.61
2018-02-23T01:01:28.785Z,1017.63
2018-02-23T01:02:28.737Z,1017.61
2018-02-23T01:03:28.692Z,1017.62
2018-02-23T01:04:28.649Z,1017.57
2018-02-23T01:05:28.596Z,1017.63
2018-02-23T01:06:28.546Z,1017.63
2018-02-23T01:07:28.799Z,1017.57
2018-02-23T01:08:28.451Z,1017.63
2018-02-23T01:09:28.401Z,1017.60
2018-02-23T01:10:28.357Z,1017.53
2018-02-23T01:11:28.306Z,1017.56
2018-02-23T01:12:28.263Z,1017.58
2018-02-23T01:13:28.213Z,1017.57
2018-02-23T01:14:28.469Z,1017.51
2018-02-23T01:15:28.117Z,1017.56
2018-02-23T01:16:28.218Z,1017.55
2018-02-23T01:17:28.020Z,1017.57
2018-02-23T01:18:27.974Z,1017.53
2018-02-23T01:19:27.924Z,1017.50
2018-02-23T01:20:27.879Z,1017.54
2018-02-23T01:21:28.132Z,1017.54
2018-02-23T01:22:27.988Z,1017.50
2018-02-23T01:23:27.733Z,1017.49
2018-02-23T01:24:27.685Z,1017.54
2018-02-23T01:25:27.638Z,1017.50
2018-02-23T01:26:27.593Z,1017.52
2018-02-23T01:27:27.549Z,1017.54
2018-02-23T01:28:27.794Z,1017.43
2018-02-23T01:29:27.448Z,1017.52
2018-02-23T01:30:27.402Z,1017.48
2018-02-23T01:31:27.353Z,1017.51
2018-02-23T01:32:27.303Z,1017.48
2018-02-23T01:33:27.257Z,1017.49
2018-02-23T01:34:27.511Z,1017.42
2018-02-23T01:35:27.160Z,1017.45
2018-02-23T01:36:27.113Z,1017.44
2018-02-23T01:37:27.065Z,1017.44
2018-02-23T01:38:27.067Z,1017.43
2018-02-23T01:39:26.974Z,1017.41
2018-02-23T01:40:27.221Z,1017.44
2018-02-23T01:41:26.875Z,1017.42
2018-02-23T01:42:26.829Z,1017.45
2018-02-23T01:43:26.782Z,1017.45
2018-02-23T01:44:26.783Z,1017.42
2018-02-23T01:45:26.684Z,1017.44
2018-02-23T01:46:26.939Z,1017.43
2018-02-23T01:47:26.588Z,1017.45
2018-02-23T01:48:26.541Z,1017.46
2018-02-23T01:49:26.493Z,1017.45
2018-02-23T01:50:26.494Z,1017.44
2018-02-23T01:51:26.398Z,1017.40
2018-02-23T01:52:26.651Z,1017.43
2018-02-23T01:53:26.304Z,1017.44
2018-02-23T01:54:26.257Z,1017.41
2018-02-23T01:55:26.209Z,1017.33
2018-02-23T01:56:26.161Z,1017.35
2018-02-23T01:57:26.111Z,1017.32
2018-02-23T01:58:26.365Z,1017.39
2018-02-23T01:59:26.016Z,1017.31
2018-02-23T02:00:25.973Z,1017.37
2018-02-23T02:01:25.922Z,1017.35
2018-02-23T02:02:25.879Z,1017.34
2018-02-23T02:04:25.778Z,1017.33
2018-02-23T02:05:26.033Z,1017.32
2018-02-23T02:06:25.685Z,1017.25
2018-02-23T02:07:25.636Z,1017.31
2018-02-23T02:08:25.588Z,1017.27
2018-02-23T02:09:25.543Z,1017.27
2018-02-23T02:10:25.493Z,1017.26
2018-02-23T02:11:25.444Z,1017.24
2018-02-23T02:12:25.703Z,1017.24
2018-02-23T02:13:25.349Z,1017.21
2018-02-23T02:14:25.304Z,1017.19
2018-02-23T02:15:25.255Z,1017.14
2018-02-23T02:16:25.312Z,1017.14
2018-02-23T02:17:25.160Z,1017.16
2018-02-23T02:18:25.113Z,1017.09
2018-02-23T02:19:25.364Z,1017.11
2018-02-23T02:20:25.023Z,1017.12
2018-02-23T02:21:24.970Z,1017.16
2018-02-23T02:22:24.970Z,1017.17
2018-02-23T02:23:24.875Z,1017.17
2018-02-23T02:24:24.827Z,1017.15
2018-02-23T02:25:24.782Z,1017.17
2018-02-23T02:26:25.032Z,1017.20
2018-02-23T02:27:24.684Z,1017.18
2018-02-23T02:28:24.689Z,1017.18
2018-02-23T02:29:24.590Z,1017.14
2018-02-23T02:30:24.544Z,1017.16
2018-02-23T02:31:24.493Z,1017.16
2018-02-23T02:32:24.448Z,1017.17
2018-02-23T02:33:24.699Z,1017.20
2018-02-23T02:34:24.352Z,1017.16
2018-02-23T02:35:24.306Z,1017.19
2018-02-23T02:36:24.261Z,1017.21
2018-02-23T02:37:24.207Z,1017.21
2018-02-23T02:38:24.167Z,1017.19
2018-02-23T02:39:24.117Z,1017.23
2018-02-23T02:40:24.365Z,1017.25
2018-02-23T02:41:24.018Z,1017.16
2018-02-23T02:42:23.972Z,1017.15
2018-02-23T02:43:23.923Z,1017.22
2018-02-23T02:44:23.925Z,1017.21
2018-02-23T02:45:23.831Z,1017.17
2018-02-23T02:46:24.086Z,1017.20
2018-02-23T02:47:23.733Z,1017.19
2018-02-23T02:48:23.741Z,1017.16
2018-02-23T02:49:23.640Z,1017.15
2018-02-23T02:50:23.792Z,1017.13
2018-02-23T02:51:23.547Z,1017.16
2018-02-23T02:52:23.798Z,1017.13
2018-02-23T02:53:23.452Z,1017.16
2018-02-23T02:54:23.405Z,1017.14
2018-02-23T02:55:23.361Z,1017.09
2018-02-23T02:56:23.311Z,1017.17
2018-02-23T02:57:23.256Z,1017.17
2018-02-23T02:58:23.515Z,1017.14
2018-02-23T02:59:23.167Z,1017.14
2018-02-23T03:00:23.113Z,1017.16
2018-02-23T03:01:23.069Z,1017.17
2018-02-23T03:02:23.022Z,1017.18
2018-02-23T03:03:22.972Z,1017.17
2018-02-23T03:04:23.227Z,1017.18
2018-02-23T03:05:22.876Z,1017.18
2018-02-23T03:06:22.829Z,1017.16
2018-02-23T03:07:22.784Z,1017.13
2018-02-23T03:08:22.734Z,1017.14
2018-02-23T03:09:22.686Z,1017.11
2018-02-23T03:10:22.641Z,1017.11
2018-02-23T03:11:22.591Z,1017.12
2018-02-23T03:12:22.543Z,1017.14
2018-02-23T03:13:22.500Z,1017.07
2018-02-23T03:14:22.449Z,1017.04
2018-02-23T03:15:22.399Z,1017.04
2018-02-23T03:16:22.654Z,1017.07
2018-02-23T03:17:22.307Z,1017.13
2018-02-23T03:18:22.266Z,1017.05
2018-02-23T03:19:22.211Z,1017.08
2018-02-23T03:20:22.163Z,1017.09
2018-02-23T03:21:22.167Z,1017.04
2018-02-23T03:22:22.073Z,1017.08
2018-02-23T03:23:22.319Z,1017.10
2018-02-23T03:24:21.977Z,1017.06
2018-02-23T03:25:21.925Z,1017.07
2018-02-23T03:26:21.885Z,1017.09
2018-02-23T03:27:21.829Z,1017.09
2018-02-23T03:28:21.784Z,1017.07
2018-02-23T03:29:21.735Z,1017.09
2018-02-23T03:30:21.988Z,1017.08
2018-02-23T03:31:21.642Z,1017.12
2018-02-23T03:32:21.592Z,1017.10
2018-02-23T03:33:21.545Z,1017.09
2018-02-23T03:34:21.500Z,1017.08
2018-02-23T03:35:21.448Z,1017.10
2018-02-23T03:36:21.402Z,1017.10
2018-02-23T03:37:21.655Z,1017.15
2018-02-23T03:38:21.305Z,1017.13
2018-02-23T03:39:21.264Z,1017.09
2018-02-23T03:40:21.213Z,1017.12
2018-02-23T03:41:21.166Z,1017.06
2018-02-23T03:42:21.115Z,1017.08
2018-02-23T03:43:21.065Z,1017.10
2018-02-23T03:44:21.320Z,1017.08
2018-02-23T03:45:20.971Z,1017.07
2018-02-23T03:46:20.929Z,1017.06
2018-02-23T03:47:20.874Z,1017.11
2018-02-23T03:48:20.827Z,1017.10
2018-02-23T03:49:20.778Z,1017.12
2018-02-23T03:50:20.731Z,1017.14
2018-02-23T03:51:20.989Z,1017.10
2018-02-23T03:52:20.634Z,1017.07
2018-02-23T03:53:20.587Z,1017.11
2018-02-23T03:54:20.543Z,1017.13
2018-02-23T03:55:20.491Z,1017.14
2018-02-23T03:56:20.446Z,1017.16
2018-02-23T03:57:20.700Z,1017.12
2018-02-23T03:58:20.347Z,1017.10
2018-02-23T03:59:20.300Z,1017.10
2018-02-23T04:00:20.249Z,1017.06
2018-02-23T04:01:20.201Z,1017.12
2018-02-23T04:02:20.152Z,1017.14
2018-02-23T04:03:20.413Z,1017.10
2018-02-23T04:04:20.056Z,1017.10
2018-02-23T04:05:20.018Z,1017.10
2018-02-23T04:06:19.959Z,1017.09
2018-02-23T04:07:19.912Z,1017.07
2018-02-23T04:08:19.869Z,1017.07
2018-02-23T04:09:20.165Z,1017.08
2018-02-23T04:10:19.765Z,1017.13
2018-02-23T04:11:19.722Z,1017.14
2018-02-23T04:12:19.668Z,1017.12
2018-02-23T04:13:19.619Z,1017.21
2018-02-23T04:14:19.571Z,1017.25
2018-02-23T04:15:19.974Z,1017.24
2018-02-23T04:16:19.474Z,1017.21
2018-02-23T04:17:19.427Z,1017.15
2018-02-23T04:18:19.381Z,1017.13
2018-02-23T04:19:19.329Z,1017.19
2018-02-23T04:20:19.286Z,1017.18
2018-02-23T04:21:19.531Z,1017.21
2018-02-23T04:22:19.188Z,1017.22
2018-02-23T04:23:19.136Z,1017.24
2018-02-23T04:24:19.137Z,1017.20
2018-02-23T04:25:19.038Z,1017.21
2018-02-23T04:26:18.991Z,1017.21
2018-02-23T04:27:18.942Z,1017.27
2018-02-23T04:28:19.192Z,1017.25
2018-02-23T04:29:18.844Z,1017.22
2018-02-23T04:30:18.798Z,1017.21
2018-02-23T04:31:18.745Z,1017.27
2018-02-23T04:32:18.747Z,1017.26
2018-02-23T04:33:18.650Z,1017.27
2018-02-23T04:34:18.603Z,1017.26
2018-02-23T04:35:18.852Z,1017.29
2018-02-23T04:36:18.502Z,1017.31
2018-02-23T04:37:18.452Z,1017.24
2018-02-23T04:38:18.460Z,1017.28
2018-02-23T04:39:18.356Z,1017.30
2018-02-23T04:40:18.309Z,1017.29
2018-02-23T04:41:18.261Z,1017.28
2018-02-23T04:42:18.515Z,1017.30
2018-02-23T04:43:18.168Z,1017.33
2018-02-23T04:44:18.114Z,1017.36
2018-02-23T04:45:18.065Z,1017.34
2018-02-23T04:46:18.020Z,1017.35
2018-02-23T04:47:17.966Z,1017.39
2018-02-23T04:48:17.918Z,1017.37
2018-02-23T04:49:17.871Z,1017.44
2018-02-23T04:50:17.820Z,1017.35
2018-02-23T04:51:17.772Z,1017.40
2018-02-23T04:52:17.729Z,1017.41
2018-02-23T04:53:17.674Z,1017.41
2018-02-23T04:54:17.627Z,1017.40
2018-02-23T04:55:17.875Z,1017.38
2018-02-23T04:56:17.528Z,1017.40
2018-02-23T04:57:17.480Z,1017.30
2018-02-23T04:58:17.431Z,1017.37
2018-02-23T04:59:17.433Z,1017.31
2018-02-23T05:00:17.334Z,1017.31
2018-02-23T05:01:17.283Z,1017.24
2018-02-23T05:02:17.538Z,1017.28
2018-02-23T05:03:17.186Z,1017.28
2018-02-23T05:04:17.137Z,1017.25
2018-02-23T05:05:17.290Z,1017.21
2018-02-23T05:06:17.044Z,1017.29
2018-02-23T05:07:16.991Z,1017.29
2018-02-23T05:08:17.242Z,1017.28
2018-02-23T05:09:16.895Z,1017.28
2018-02-23T05:10:16.867Z,1017.27
2018-02-23T05:11:16.795Z,1017.20
2018-02-23T05:12:16.748Z,1017.21
2018-02-23T05:13:16.698Z,1017.22
2018-02-23T05:14:16.952Z,1017.22
2018-02-23T05:15:16.598Z,1017.23
2018-02-23T05:16:16.552Z,1017.28
2018-02-23T05:17:16.509Z,1017.24
2018-02-23T05:18:16.453Z,1017.26
2018-02-23T05:19:16.403Z,1017.29
2018-02-23T05:20:16.657Z,1017.30
2018-02-23T05:21:16.306Z,1017.34
2018-02-23T05:22:16.258Z,1017.32
2018-02-23T05:23:16.212Z,1017.36
2018-02-23T05:24:16.164Z,1017.37
2018-02-23T05:25:16.114Z,1017.31
2018-02-23T05:26:16.364Z,1017.40
2018-02-23T05:27:16.075Z,1017.39
2018-02-23T05:28:15.966Z,1017.43
2018-02-23T05:29:15.916Z,1017.46
2018-02-23T05:30:15.866Z,1017.38
2018-02-23T05:31:15.817Z,1017.46
2018-02-23T05:32:16.070Z,1017.41
2018-02-23T05:33:15.773Z,1017.41
2018-02-23T05:34:15.677Z,1017.36
2018-02-23T05:35:15.622Z,1017.42
2018-02-23T05:36:15.574Z,1017.42
2018-02-23T05:37:15.526Z,1017.46
2018-02-23T05:38:15.478Z,1017.49
2018-02-23T05:39:15.725Z,1017.48
2018-02-23T05:40:15.379Z,1017.45
2018-02-23T05:41:15.333Z,1017.51
2018-02-23T05:42:15.285Z,1017.49
2018-02-23T05:43:15.231Z,1017.53
2018-02-23T05:44:15.237Z,1017.55
2018-02-23T05:45:15.136Z,1017.51
2018-02-23T05:46:15.393Z,1017.52
2018-02-23T05:47:15.037Z,1017.54
2018-02-23T05:48:14.996Z,1017.54
2018-02-23T05:49:15.159Z,1017.52
2018-02-23T05:50:14.942Z,1017.51
2018-02-23T05:51:14.847Z,1017.57
2018-02-23T05:52:14.798Z,1017.55
2018-02-23T05:53:15.048Z,1017.54
2018-02-23T05:54:14.706Z,1017.56
2018-02-23T05:55:14.649Z,1017.59
2018-02-23T05:56:14.701Z,1017.56
2018-02-23T05:57:14.552Z,1017.58
2018-02-23T05:58:14.503Z,1017.56
2018-02-23T05:59:14.462Z,1017.55
2018-02-23T06:00:14.707Z,1017.60
2018-02-23T06:01:14.358Z,1017.56
2018-02-23T06:02:14.315Z,1017.65
2018-02-23T06:03:14.263Z,1017.60
2018-02-23T06:04:14.225Z,1017.64
2018-02-23T06:05:14.167Z,1017.63
2018-02-23T06:06:14.117Z,1017.68
2018-02-23T06:07:14.367Z,1017.67
2018-02-23T06:08:14.021Z,1017.66
2018-02-23T06:09:13.970Z,1017.65
2018-02-23T06:10:14.028Z,1017.68
2018-02-23T06:11:13.871Z,1017.65
2018-02-23T06:12:13.829Z,1017.66
2018-02-23T06:13:14.078Z,1017.68
2018-02-23T06:14:13.735Z,1017.62
2018-02-23T06:15:13.677Z,1017.65
2018-02-23T06:16:13.631Z,1017.58
2018-02-23T06:17:13.580Z,1017.71
2018-02-23T06:18:13.531Z,1017.65
2018-02-23T06:19:13.782Z,1017.66
2018-02-23T06:20:13.789Z,1017.66
2018-02-23T06:21:13.696Z,1017.74
2018-02-23T06:22:14.421Z,1017.76
2018-02-23T06:23:13.740Z,1017.72
2018-02-23T06:24:13.243Z,1017.79
2018-02-23T06:25:14.901Z,1017.73
2018-02-23T06:26:13.145Z,1017.79
2018-02-23T06:27:14.257Z,1017.80
2018-02-23T06:28:13.556Z,1017.73
2018-02-23T06:29:13.000Z,1017.72
2018-02-23T06:30:12.947Z,1017.68
2018-02-23T06:31:13.199Z,1017.70
2018-02-23T06:32:12.851Z,1017.75
2018-02-23T06:33:12.804Z,1017.67
2018-02-23T06:34:12.754Z,1017.79
2018-02-23T06:35:12.703Z,1017.79
2018-02-23T06:36:12.659Z,1017.78
2018-02-23T06:37:12.903Z,1017.82
2018-02-23T06:38:12.559Z,1017.80
2018-02-23T06:39:12.507Z,1017.82
2018-02-23T06:40:12.463Z,1017.81
2018-02-23T06:41:12.410Z,1017.81
2018-02-23T06:42:12.362Z,1017.83
2018-02-23T06:43:12.310Z,1017.85
2018-02-23T06:44:12.563Z,1017.83
2018-02-23T06:45:12.214Z,1017.87
2018-02-23T06:46:12.169Z,1017.85
2018-02-23T06:47:12.115Z,1017.90
2018-02-23T06:48:12.116Z,1017.92
2018-02-23T06:49:12.019Z,1017.94
2018-02-23T06:50:11.970Z,1017.96
2018-02-23T06:51:12.224Z,1017.89
2018-02-23T06:52:11.924Z,1017.89
2018-02-23T06:53:11.823Z,1017.89
2018-02-23T06:54:11.776Z,1017.90
2018-02-23T06:55:11.728Z,1017.92
2018-02-23T06:56:11.679Z,1017.91
2018-02-23T06:57:11.628Z,1018.02
2018-02-23T06:58:11.927Z,1017.98
2018-02-23T06:59:11.533Z,1018.02
2018-02-23T07:00:11.485Z,1017.99
2018-02-23T07:01:11.434Z,1018.03
2018-02-23T07:02:11.386Z,1017.98
2018-02-23T07:03:11.335Z,1018.01
2018-02-23T07:04:11.492Z,1017.99
2018-02-23T07:05:11.544Z,1018.07
2018-02-23T07:06:11.192Z,1018.03
2018-02-23T07:07:11.140Z,1018.08
2018-02-23T07:08:11.099Z,1018.07
2018-02-23T07:09:11.051Z,1018.05
2018-02-23T07:10:10.996Z,1018.11
2018-02-23T07:11:10.983Z,1018.11
2018-02-23T07:12:11.197Z,1018.05
2018-02-23T07:13:10.851Z,1018.03
2018-02-23T07:14:10.811Z,1018.04
2018-02-23T07:15:10.750Z,1017.98
2018-02-23T07:16:10.703Z,1018.07
2018-02-23T07:17:10.654Z,1018.06
2018-02-23T07:18:10.607Z,1018.07
2018-02-23T07:19:10.860Z,1018.03
2018-02-23T07:20:10.560Z,1018.07
2018-02-23T07:21:10.461Z,1018.07
2018-02-23T07:22:10.414Z,1018.13
2018-02-23T07:23:10.364Z,1018.09
2018-02-23T07:24:10.319Z,1018.11
2018-02-23T07:25:10.566Z,1018.14
2018-02-23T07:26:10.476Z,1018.11
2018-02-23T07:27:10.178Z,1018.15
2018-02-23T07:28:10.122Z,1018.16
2018-02-23T07:29:10.130Z,1018.17
2018-02-23T07:30:10.026Z,1018.16
2018-02-23T07:31:10.276Z,1018.20
2018-02-23T07:32:09.979Z,1018.23
2018-02-23T07:33:09.881Z,1018.21
2018-02-23T07:34:09.833Z,1018.26
2018-02-23T07:35:09.785Z,1018.28
2018-02-23T07:36:09.738Z,1018.27
2018-02-23T07:37:09.991Z,1018.26
2018-02-23T07:38:09.651Z,1018.28
2018-02-23T07:39:09.598Z,1018.34
2018-02-23T07:40:09.550Z,1018.31
2018-02-23T07:41:09.502Z,1018.33
2018-02-23T07:42:09.459Z,1018.32
2018-02-23T07:43:09.713Z,1018.31
2018-02-23T07:44:09.367Z,1018.35
2018-02-23T07:45:09.327Z,1018.32
2018-02-23T07:46:09.278Z,1018.35
2018-02-23T07:47:09.232Z,1018.43
2018-02-23T07:48:09.186Z,1018.40
2018-02-23T07:49:09.448Z,1018.37
2018-02-23T07:50:09.103Z,1018.42
2018-02-23T07:51:09.055Z,1018.39
2018-02-23T07:52:09.014Z,1018.43
2018-02-23T07:53:09.023Z,1018.48
2018-02-23T07:54:08.926Z,1018.44
2018-02-23T07:55:08.884Z,1018.43
2018-02-23T07:56:09.138Z,1018.49
2018-02-23T07:57:08.802Z,1018.47
2018-02-23T07:58:08.759Z,1018.48
2018-02-23T07:59:08.766Z,1018.48
2018-02-23T08:00:08.671Z,1018.51
2018-02-23T08:01:08.629Z,1018.46
2018-02-23T08:02:08.788Z,1018.45
2018-02-23T08:03:08.857Z,1018.48
2018-02-23T08:04:08.504Z,1018.52
2018-02-23T08:05:08.466Z,1018.49
2018-02-23T08:06:08.520Z,1018.51
2018-02-23T08:07:08.378Z,1018.53
2018-02-23T08:08:08.339Z,1018.52
2018-02-23T08:09:08.348Z,1018.57
2018-02-23T08:10:08.561Z,1018.62
2018-02-23T08:11:08.214Z,1018.62
2018-02-23T08:12:08.178Z,1018.68
2018-02-23T08:13:08.136Z,1018.68
2018-02-23T08:14:08.096Z,1018.76
2018-02-23T08:15:08.055Z,1018.66
2018-02-23T08:16:08.065Z,1018.65
2018-02-23T08:17:08.276Z,1018.66
2018-02-23T08:18:07.943Z,1018.70
2018-02-23T08:19:07.899Z,1018.74
2018-02-23T08:20:07.857Z,1018.74
2018-02-23T08:21:07.820Z,1018.74
2018-02-23T08:22:07.829Z,1018.78
2018-02-23T08:23:07.737Z,1018.78
2018-02-23T08:24:07.998Z,1018.83
2018-02-23T08:25:07.659Z,1018.78
2018-02-23T08:26:07.674Z,1018.86
2018-02-23T08:27:07.586Z,1018.84
2018-02-23T08:28:07.542Z,1018.85
2018-02-23T08:29:07.580Z,1018.88
2018-02-23T08:30:07.477Z,1018.87
2018-02-23T08:31:07.726Z,1018.89
2018-02-23T08:32:07.439Z,1018.93
2018-02-23T08:33:07.350Z,1018.91
2018-02-23T08:34:07.356Z,1018.94
2018-02-23T08:35:07.275Z,1018.88
2018-02-23T08:36:07.428Z,1018.86
2018-02-23T08:37:07.492Z,1018.87
2018-02-23T08:38:07.153Z,1018.89
2018-02-23T08:39:07.115Z,1018.93
2018-02-23T08:40:07.079Z,1018.84
2018-02-23T08:41:07.036Z,1018.86
2018-02-23T08:42:07.001Z,1018.89
2018-02-23T08:43:07.257Z,1018.91
2018-02-23T08:44:06.920Z,1018.89
2018-02-23T08:45:06.879Z,1018.91
2018-02-23T08:46:06.971Z,1018.89
2018-02-23T08:47:06.902Z,1018.89
2018-02-23T08:48:06.765Z,1018.91
2018-02-23T08:49:07.028Z,1018.94
2018-02-23T08:50:06.693Z,1018.92
2018-02-23T08:51:06.756Z,1018.95
2018-02-23T08:52:06.615Z,1018.86
2018-02-23T08:53:06.575Z,1018.89
2018-02-23T08:54:06.588Z,1018.89
2018-02-23T08:55:06.802Z,1018.87
2018-02-23T08:56:06.463Z,1018.88
2018-02-23T08:57:06.427Z,1018.91
2018-02-23T08:58:06.394Z,1018.90
2018-02-23T08:59:06.353Z,1018.88
2018-02-23T09:00:06.318Z,1018.91
2018-02-23T09:01:06.581Z,1018.94
2018-02-23T09:02:06.244Z,1018.95
2018-02-23T09:03:06.202Z,1018.94
2018-02-23T09:04:06.168Z,1018.94
2018-02-23T09:05:06.179Z,1018.95
2018-02-23T09:06:06.095Z,1018.92
2018-02-23T09:07:06.054Z,1018.96
2018-02-23T09:08:06.316Z,1018.96
2018-02-23T09:09:06.033Z,1018.99
2018-02-23T09:10:05.940Z,1018.90
2018-02-23T09:11:05.905Z,1019.03
2018-02-23T09:12:05.916Z,1018.99
2018-02-23T09:13:05.833Z,1018.81
2018-02-23T09:14:05.843Z,1018.99
2018-02-23T09:15:06.054Z,1018.97
2018-02-23T09:16:05.728Z,1018.93
2018-02-23T09:17:05.685Z,1018.97
2018-02-23T09:18:05.644Z,1018.93
2018-02-23T09:19:05.605Z,1018.94
2018-02-23T09:20:05.576Z,1019.00
2018-02-23T09:21:05.531Z,1019.12
2018-02-23T09:22:05.795Z,1018.98
2018-02-23T09:23:05.455Z,1019.05
2018-02-23T09:24:05.423Z,1019.04
2018-02-23T09:25:05.382Z,1019.08
2018-02-23T09:26:05.351Z,1019.05
2018-02-23T09:27:05.306Z,1019.15
2018-02-23T09:28:05.268Z,1019.11
2018-02-23T09:29:05.533Z,1019.12
2018-02-23T09:30:05.241Z,1019.12
2018-02-23T09:31:05.164Z,1019.20
2018-02-23T09:32:05.178Z,1019.16
2018-02-23T09:33:05.084Z,1019.10
2018-02-23T09:34:05.338Z,1019.06
2018-02-23T09:35:05.068Z,1019.03
2018-02-23T09:36:05.378Z,1019.08
2018-02-23T09:37:04.940Z,1019.13
2018-02-23T09:38:04.907Z,1019.10
2018-02-23T09:39:04.966Z,1019.09
2018-02-23T09:40:04.880Z,1018.88
2018-02-23T09:41:04.793Z,1018.83
2018-02-23T09:42:04.762Z,1019.16
2018-02-23T09:43:05.022Z,1018.96
2018-02-23T09:44:04.684Z,1019.17
2018-02-23T09:45:04.646Z,1019.14
2018-02-23T09:46:04.818Z,1019.14
2018-02-23T09:47:04.629Z,1019.24
2018-02-23T09:48:04.553Z,1019.26
2018-02-23T09:49:05.007Z,1019.24
2018-02-23T09:50:04.478Z,1019.22
2018-02-23T09:51:04.436Z,1019.26
2018-02-23T09:52:04.396Z,1019.17
2018-02-23T09:53:04.357Z,1019.26
2018-02-23T09:55:04.337Z,1019.21
2018-02-23T09:56:04.555Z,1019.22
2018-02-23T09:57:04.224Z,1019.24
2018-02-23T09:58:04.186Z,1019.25
2018-02-23T09:59:04.196Z,1018.76
2018-02-23T10:00:04.119Z,1019.07
2018-02-23T10:01:04.075Z,1019.14
2018-02-23T10:02:04.493Z,1018.99
2018-02-23T10:03:04.007Z,1019.14
2018-02-23T10:04:03.974Z,1019.17
2018-02-23T10:05:04.096Z,1018.86
2018-02-23T10:06:03.907Z,1018.80
2018-02-23T10:07:03.916Z,1018.87
2018-02-23T10:08:04.138Z,1018.94
2018-02-23T10:09:03.843Z,1019.10
2018-02-23T10:10:04.017Z,1019.07
2018-02-23T10:11:03.727Z,1018.94
2018-02-23T10:12:03.687Z,1019.01
2018-02-23T10:13:03.655Z,1019.07
2018-02-23T10:14:04.164Z,1018.96
2018-02-23T10:15:03.627Z,1018.98
2018-02-23T10:16:03.558Z,1018.92
2018-02-23T10:17:03.657Z,1018.97
2018-02-23T10:18:03.476Z,1018.80
2018-02-23T10:19:03.492Z,1018.80
2018-02-23T10:20:03.748Z,1018.98
2018-02-23T10:21:03.566Z,1018.91
2018-02-23T10:22:03.429Z,1018.86
2018-02-23T10:23:03.297Z,1018.84
2018-02-23T10:24:03.306Z,1018.92
2018-02-23T10:25:03.224Z,1018.95
2018-02-23T10:26:03.192Z,1018.77
2018-02-23T10:27:03.550Z,1018.71
2018-02-23T10:28:03.115Z,1018.88
2018-02-23T10:29:03.279Z,1018.97
2018-02-23T10:30:03.091Z,1019.09
2018-02-23T10:31:03.011Z,1018.96
2018-02-23T10:32:02.971Z,1018.85
2018-02-23T10:33:02.934Z,1018.88
2018-02-23T10:34:03.403Z,1018.94
2018-02-23T10:35:03.072Z,1018.67
2018-02-23T10:36:02.832Z,1019.04
2018-02-23T10:37:02.845Z,1019.09
2018-02-23T10:38:02.812Z,1018.68
2018-02-23T10:39:02.962Z,1018.81
2018-02-23T10:40:02.735Z,1018.76
2018-02-23T10:41:02.943Z,1018.77
2018-02-23T10:42:02.606Z,1018.73
2018-02-23T10:43:02.570Z,1018.56
2018-02-23T10:44:02.585Z,1018.50
2018-02-23T10:45:02.494Z,1018.50
2018-02-23T10:46:02.456Z,1018.49
2018-02-23T10:47:02.575Z,1018.44
2018-02-23T10:48:02.681Z,1018.45
2018-02-23T10:49:02.394Z,1018.45
2018-02-23T10:50:02.607Z,1018.60
2018-02-23T10:51:02.273Z,1018.50
2018-02-23T10:52:02.336Z,1018.46
2018-02-23T10:53:02.191Z,1018.40
2018-02-23T10:54:02.258Z,1018.35
2018-02-23T10:55:02.470Z,1018.34
2018-02-23T10:56:02.078Z,1018.29
2018-02-23T10:57:02.138Z,1018.34
2018-02-23T10:58:02.001Z,1018.32
2018-02-23T10:59:01.955Z,1018.30
2018-02-23T11:00:01.914Z,1018.33
2018-02-23T11:01:01.880Z,1018.34
2018-02-23T11:02:02.239Z,1018.57
2018-02-23T11:03:01.797Z,1018.47
2018-02-23T11:04:01.802Z,1018.48
2018-02-23T11:05:01.812Z,1018.62
2018-02-23T11:06:01.673Z,1018.58
2018-02-23T11:07:01.685Z,1018.63
2018-02-23T11:08:01.893Z,1018.60
2018-02-23T11:09:01.552Z,1018.44
2018-02-23T11:10:01.679Z,1018.43
2018-02-23T11:11:01.487Z,1018.56
2018-02-23T11:12:01.500Z,1018.62
2018-02-23T11:13:01.405Z,1018.61
2018-02-23T11:14:01.867Z,1018.57
2018-02-23T11:15:01.528Z,1018.59
2018-02-23T11:16:01.296Z,1018.59
2018-02-23T11:17:01.254Z,1018.59
2018-02-23T11:18:01.216Z,1018.52
2018-02-23T11:19:01.184Z,1018.55
2018-02-23T11:20:01.448Z,1018.69
2018-02-23T11:21:01.116Z,1018.63
2018-02-23T11:22:01.126Z,1018.64
2018-02-23T11:23:01.049Z,1018.69
2018-02-23T11:24:01.057Z,1018.63
2018-02-23T11:25:00.991Z,1018.56
2018-02-23T11:26:01.238Z,1018.56
2018-02-23T11:27:00.901Z,1018.55
2018-02-23T11:28:00.868Z,1018.33
2018-02-23T11:29:00.844Z,1018.38
2018-02-23T11:30:00.859Z,1018.34
2018-02-23T11:31:00.764Z,1018.50
2018-02-23T11:32:01.036Z,1018.47
2018-02-23T11:33:00.698Z,1018.42
2018-02-23T11:34:00.708Z,1018.44
2018-02-23T11:35:00.724Z,1018.41
2018-02-23T11:36:00.590Z,1018.43
2018-02-23T11:37:00.608Z,1018.49
2018-02-23T11:38:00.524Z,1018.43
2018-02-23T11:39:00.941Z,1018.37
2018-02-23T11:40:00.500Z,1018.40
2018-02-23T11:41:00.420Z,1018.43
2018-02-23T11:42:00.500Z,1018.41
2018-02-23T11:43:00.344Z,1018.40
2018-02-23T11:44:00.364Z,1018.48
2018-02-23T11:45:00.432Z,1018.40
2018-02-23T11:46:00.551Z,1018.36
2018-02-23T11:47:00.309Z,1018.36
2018-02-23T11:48:00.170Z,1018.25
2018-02-23T11:49:00.337Z,1018.32
2018-02-23T11:50:00.152Z,1018.33
2018-02-23T11:51:00.069Z,1018.43
2018-02-23T11:52:00.086Z,1018.35
2018-02-23T11:53:00.304Z,1018.30
2018-02-23T11:54:00.067Z,1018.27
2018-02-23T11:55:00.031Z,1018.26
2018-02-23T11:55:59.891Z,1018.37
2018-02-23T11:56:59.859Z,1018.30
2018-02-23T11:57:59.980Z,1018.29
2018-02-23T11:58:59.837Z,1018.27
2018-02-23T12:00:00.066Z,1018.29
2018-02-23T12:00:59.720Z,1018.28
2018-02-23T12:01:59.737Z,1018.30
2018-02-23T12:02:59.706Z,1018.30
2018-02-23T12:03:59.719Z,1018.25
2018-02-23T12:04:59.882Z,1018.26
2018-02-23T12:05:59.548Z,1018.26
2018-02-23T12:06:59.814Z,1018.31